Terminal Aerodrome Forecast
Issued by NWS Topeka, KS

Home | Current Version | Previous Version | Text Only | Print | Product List | Glossary On
Versions: 1 2 3 4 5 6 7 8 9 10 11 12 13 14 15 16 17 18 19 20 21 22 23 24 25 26
518
FTUS43 KTOP 290900 AAD
TAFTOP
TAF AMD
KTOP 290900Z 2909/3006 06015G19KT 3SM RA BR VCTS SCT015 OVC040CB
      TEMPO 2909/2913 OVC015CB
     FM291300 06015G23KT 2SM SHRA BR OVC006
     FM291800 08015G23KT 2SM SHRA BR VCTS OVC006CB
     FM300000 05009KT 3SM -SHRA BR OVC080=

USA.gov is the U.S. government's official web portal to all federal, state and local government web resources and services.